CPX256 Details

Departure: Princess Juliana International Airport (TNCM)
Arrival: Grantley Adams International Airport (TBPB)
Route: PJM B520 ANU UA632 BGI


Current Weather Information
TNCM 212300Z 08009KT 9999 FEW019 27/23 Q1015 NOSIG RMK A2998
TBPB 212300Z 09015KT 9999 FEW020 27/22 Q1013 NOSIG